Weather observations for the past three days for
Cairo Regional Airport
Imperial (Metric)
Date Time (cdt) Wind (mph) Vis. (mi.) Weather Sky Cond. Temperature (ºF) Relative Humidity Wind Chill (°F) Heat Index (°F) Pressure Precipitation (in)
Air Dwpt 6 hour altimeter (in) sea level (mb) 1 hr 3 hr 6 hr
Max. Min.
09 18:55 S 3 10.00 Fair CLR 79.7 48.4 81.5 72.3 33% 79 29.81 0.0
09 18:35 S 6 10.00 Fair CLR 80.2 47.7 32% 79 29.81 0.0
09 18:15 SW 7 10.00 Fair CLR 80.8 49.1 33% 80 29.81 0.0
09 17:55 SW 3 10.00 Fair CLR 81.1 50 34% 80 29.81 0.0
09 17:35 S 6 10.00 Fair CLR 81.1 50.4 34% 80 29.82 0.0
09 17:15 S 8 10.00 Fair CLR 81.1 49.1 33% 80 29.82 0.0
09 16:55 S 7 10.00 Fair CLR 81.3 49.6 33% 80 29.81 0.0
09 16:35 S 7 10.00 Fair CLR 80.8 50.9 35% 80 29.81 0.0
09 16:15 S 7 10.00 Fair CLR 80.8 51.3 36% 80 29.81 0.0
09 15:55 S 6 10.00 Fair CLR 79.9 52.9 39% 80 29.82 0.0
09 15:35 SW 3 10.00 Fair CLR 79.5 53.8 41% 80 29.82 0.0
09 15:15 SE 3 10.00 Fair CLR 79 55.6 45% 80 29.83 0.0
09 14:55 S 7 10.00 Fair CLR 77.7 56.8 49% 79 29.84 0.0
09 14:35 Calm 10.00 Fair CLR 77.2 57.7 51% 79 29.85 0.0
09 14:15 S 6 10.00 Fair CLR 77 57.9 52% 79 29.85 0.0
09 13:55 Calm 10.00 Fair CLR 75.2 56.3 52% 78 29.85 0.0
09 13:35 Calm 10.00 Fair CLR 73.8 57.4 57% 29.85 0.0
09 13:15 SW 3 10.00 Fair CLR 73.2 58.1 59% 29.86 0.0
09 12:55 SW 5 10.00 Fair CLR 72.7 58.8 72.7 57 62% 29.87 0.0
09 12:35 S 3 10.00 Fair CLR 71.8 59.7 66% 29.87 0.0
09 12:15 W 5 10.00 Fair CLR 71.1 59.7 68% 29.87 0.0
09 11:55 NW 5 10.00 Fair CLR 69.8 59.9 71% 29.87 0.0
09 11:35 Calm 10.00 Fair CLR 68.2 59 73% 29.87 0.0
09 10:55 W 6 10.00 Partly Cloudy SCT015 66.6 59.5 78% 29.87 0.0
09 10:35 W 6 10.00 Partly Cloudy SCT013 65.8 60.1 82% 29.87 0.0
09 10:15 W 5 10.00 Mostly Cloudy BKN013 64.8 59.9 84% 29.87 0.0
09 09:55 W 7 10.00 Mostly Cloudy BKN013 64.2 59.4 84% 29.86 0.0
09 09:35 W 6 10.00 Partly Cloudy SCT011 64.9 59.7 83% 29.85 0.0
09 09:15 W 5 10.00 Partly Cloudy SCT009 63.3 59.9 89% 29.85 0.0
09 08:55 W 5 10.00 Partly Cloudy SCT006 62.2 59.5 91% 29.84 0.0
09 08:35 W 5 10.00 Partly Cloudy SCT006 61.7 58.5 89% 29.84 0.0
09 08:15 Calm 10.00 Partly Cloudy SCT004 60.8 59 94% 29.83 0.0
09 07:55 Calm 10.00 Partly Cloudy SCT004 59.9 58.5 95% 29.83 0.0
09 07:35 Calm 10.00 Partly Cloudy SCT004 59 58.5 98% 29.82 0.0
09 07:15 Calm 7.00 Fair CLR 58.3 58.3 100% 29.82 0.0
09 06:55 Calm 3.00 Fair CLR 56.7 56.7 65.8 54.5 100% 29.81 0.0 0.04
09 06:35 Calm 4.00 Fair CLR 56.3 56.3 100% 29.8 0.0
09 06:15 Calm 4.00 Fair CLR 56.3 56.3 100% 29.81 0.0
09 05:55 Calm 1.25 Sky Obscured VV007 55.4 55.4 100% 29.8 0.0
09 05:35 Calm 4.00 Fair CLR 55.8 55.8 100% 29.8 0.0
09 05:15 Calm 0.75 Mostly Cloudy BKN003 54.9 54.9 100% 29.79 0.0
09 04:55 Calm 0.75 Sky Obscured VV005 55.6 55.6 100% 29.78 0.0
09 04:35 Calm 2.50 Fair CLR 55.8 55.6 99% 29.78 0.0
09 04:15 Calm 5.00 Fair CLR 56.5 56.1 99% 29.79 0.0
09 03:55 Calm 7.00 Partly Cloudy SCT075 58.1 57.6 98% 29.79 0.0 0.04
09 03:35 Calm 10.00 Partly Cloudy SCT075 SCT090 58.1 57.6 98% 29.79 0.0
09 03:15 Calm 10.00 Overcast BKN090 OVC110 59.2 57.6 94% 29.79 0.0
09 02:55 Calm 10.00 Overcast BKN090 OVC120 60.3 57.4 90% 29.79 0.0
09 02:35 W 3 10.00 Mostly Cloudy BKN090 BKN120 61.3 57.4 87% 29.79 0.0
09 02:15 SW 7 10.00 Mostly Cloudy BKN100 BKN120 61.7 57.4 86% 29.79 0.0
09 01:55 SW 9 G 16 5.00 Overcast SCT050 SCT070 OVC090 62.2 56.8 83% 29.8 0.0 0.03
09 01:15 S 9 10.00 Overcast OVC100 65.5 53.2 65% 29.78 0.0
09 00:55 SW 10 G 17 10.00 Mostly Cloudy BKN110 65.7 52.2 73.6 64.8 62% 29.78 0.0
09 00:35 S 7 10.00 Mostly Cloudy BKN110 64.8 51.8 63% 29.79 0.0
09 00:15 S 6 10.00 Overcast OVC110 65.3 51.8 62% 29.78 0.0
08 23:55 S 5 10.00 Overcast OVC110 65.7 51.3 60% 29.79 0.0
08 23:35 S 5 10.00 Mostly Cloudy BKN120 66.2 51.1 58% 29.79 0.0
08 23:15 SW 7 10.00 Partly Cloudy SCT120 66.6 50.9 57% 29.8 0.0
08 22:55 SW 3 10.00 Fair CLR 66.6 50.4 56% 29.81 0.0
08 22:35 SW 5 10.00 Fair CLR 66.7 50.4 56% 29.82 0.0
08 22:15 SW 5 10.00 Fair CLR 66.2 50.2 56% 29.82 0.0
08 21:55 Calm 10.00 Fair CLR 66.2 50 56% 29.81 0.0
08 21:35 S 5 10.00 Fair CLR 65.3 50 58% 29.81 0.0
08 21:15 S 5 10.00 Fair CLR 66 49.8 56% 29.8 0.0
08 20:55 S 5 10.00 Fair CLR 67.3 49.8 54% 29.8 0.0
08 20:35 S 5 10.00 Fair CLR 67.3 50 54% 29.79 0.0
08 20:15 S 6 10.00 Fair CLR 69.4 49.1 49% 29.8 0.0
08 19:55 S 5 10.00 Fair CLR 70 49.1 48% 29.8 0.0
08 19:35 S 3 10.00 Fair CLR 71.1 48 44% 29.81 0.0
08 19:15 S 7 10.00 Fair CLR 72.9 47.7 41% 29.81 0.0
08 18:55 SW 7 10.00 Fair CLR 73.6 48.2 75.4 71.4 41% 29.81 0.0
08 18:35 SW 10 10.00 Fair CLR 74.3 47.1 38% 29.82 0.0
08 18:15 SW 9 10.00 Fair CLR 74.7 47.5 38% 29.82 0.0
08 17:55 S 6 10.00 Fair CLR 75 48.4 39% 77 29.83 0.0
08 17:35 SW 10 10.00 Fair CLR 75.4 47.5 37% 77 29.83 0.0
08 17:15 SW 9 10.00 Fair CLR 75.2 48.4 39% 78 29.83 0.0
08 16:55 S 12 10.00 Fair CLR 75.2 48.2 39% 77 29.83 0.0
08 16:35 S 8 10.00 Fair CLR 75.2 48.2 39% 77 29.84 0.0
08 16:15 SW 8 10.00 Fair CLR 75 47.7 38% 77 29.84 0.0
08 15:55 SW 12 G 18 10.00 Fair CLR 74.5 48 39% 29.85 0.0
08 15:35 SW 10 10.00 Fair CLR 74.1 48.6 41% 29.85 0.0
08 15:15 SW 14 10.00 Fair CLR 73.6 49.5 43% 29.87 0.0
08 14:55 S 13 10.00 Fair CLR 73.6 49.1 42% 29.88 0.0
08 14:35 S 12 10.00 Fair CLR 73.9 50 43% 29.88 0.0
08 14:15 SW 14 G 20 10.00 Fair CLR 73.2 50.2 44% 29.9 0.0
08 13:55 SW 10 G 16 10.00 Fair CLR 72.7 49.8 45% 29.91 0.0
08 13:35 SW 13 G 20 10.00 Fair CLR 72.5 49.6 45% 29.92 0.0
08 13:15 S 9 G 18 10.00 Fair CLR 72 50.5 47% 29.93 0.0
08 12:55 S 14 G 18 10.00 Fair CLR 71.6 50.5 71.6 53.8 48% 29.94 0.0
08 12:35 S 10 G 17 10.00 Fair CLR 71.2 51.3 49% 29.94 0.0
08 12:15 SW 12 G 18 10.00 Fair CLR 70.9 50.9 49% 29.95 0.0
08 11:55 S 12 10.00 Fair CLR 70 50.2 50% 29.96 0.0
08 11:35 S 13 G 20 10.00 Fair CLR 69.4 50 50% 29.97 0.0
08 11:15 S 13 G 20 10.00 Fair CLR 68.4 49.8 52% 29.97 0.0
08 10:55 SW 13 G 20 10.00 Fair CLR 68 49.3 51% 29.98 0.0
08 10:35 S 10 G 18 10.00 Fair CLR 67.6 50.4 54% 29.99 0.0
08 10:15 SW 10 10.00 Fair CLR 66.4 50.2 56% 29.99 0.0
08 09:55 S 10 G 16 10.00 Fair CLR 65.3 50 58% 30 0.0
08 09:35 S 8 10.00 Fair CLR 64.4 50 60% 30.01 0.0
08 08:55 S 8 10.00 Fair CLR 61.9 49.3 64% 30.01 0.0
08 08:35 S 6 10.00 Fair CLR 60.1 48.6 66% 30.02 0.0
08 08:15 SW 7 10.00 Fair CLR 58.6 47.5 67% 30.02 0.0
08 07:55 S 6 10.00 Fair CLR 57 46.6 68% 30.02 0.0
08 07:35 S 6 10.00 Fair CLR 56.3 45.3 67% 30.02 0.0
08 07:15 S 3 10.00 Fair CLR 55.4 45.1 69% 30.02 0.0
08 06:55 S 3 10.00 Fair CLR 53.6 45.1 55.2 47.3 73% 30.01 0.0
08 06:35 Calm 10.00 Fair CLR 48.2 47.3 97% 30 0.0
08 05:55 Calm 10.00 Fair CLR 47.5 46.4 96% 29.99 0.0
08 05:35 Calm 10.00 Fair CLR 47.3 46.2 96% 29.99 0.0
08 05:15 Calm 10.00 Fair CLR 47.8 46.6 95% 29.99 0.0
08 04:55 Calm 10.00 Fair CLR 47.5 46.6 97% 29.99 0.0
08 04:35 Calm 10.00 Fair CLR 48.2 46.4 94% 29.99 0.0
08 04:15 Calm 10.00 Fair CLR 48.4 47.3 96% 29.99 0.0
08 03:55 Calm 10.00 Fair CLR 48.2 46.2 93% 29.99 0.0
08 03:35 Calm 10.00 Fair CLR 50.2 45.5 84% 29.99 0.0
08 03:15 Calm 10.00 Fair CLR 53.2 43.2 69% 29.99 0.0
08 02:55 Calm 10.00 Fair CLR 50.4 46.8 88% 30 0.0
08 02:35 Calm 10.00 Fair CLR 49.3 48 95% 30.01 0.0
08 02:15 Calm 10.00 Fair CLR 49.8 47.7 92% 30.01 0.0
08 01:55 Calm 10.00 Fair CLR 50 48 93% 30.01 0.0
08 01:35 Calm 10.00 Fair CLR 50.4 47.8 91% 30.01 0.0
08 01:15 Calm 10.00 Fair CLR 51.4 45.7 81% 30.02 0.0
08 00:55 Calm 10.00 Fair CLR 55 43.9 65.7 54.3 66% 30.02 0.0
08 00:35 Calm 10.00 Fair CLR 55.4 43.9 65% 30.02 0.0
08 00:15 Calm 10.00 Fair CLR 55.8 43.9 65% 30.02 0.0
07 23:55 S 3 10.00 Fair CLR 56.1 43.2 62% 30.01 0.0
07 23:35 Calm 10.00 Fair CLR 56.3 43 61% 30.02 0.0
07 23:15 S 5 10.00 Fair CLR 56.3 43 61% 30.02 0.0
07 22:55 S 5 10.00 Fair CLR 56.3 42.8 61% 30.02 0.0
07 22:35 S 5 10.00 Fair CLR 55 43.3 65% 30.02 0.0
07 22:15 Calm 10.00 Fair CLR 55.4 45.3 69% 30.02 0.0
07 21:55 Calm 10.00 Fair CLR 55.8 44.1 65% 30.01 0.0
07 21:35 Calm 10.00 Fair CLR 56.1 44.6 65% 30.01 0.0
07 21:15 Calm 10.00 Fair CLR 56.7 44.6 64% 30.01 0.0
07 20:55 Calm 10.00 Fair CLR 57.6 44.8 63% 30.01 0.0
07 20:15 S 3 10.00 Fair CLR 59 44.6 59% 30 0.0
07 19:55 Calm 10.00 Fair CLR 60.1 44.6 57% 29.99 0.0
07 19:35 Calm 10.00 Fair CLR 63 41.5 46% 29.99 0.0
07 19:15 Calm 10.00 Fair CLR 65.1 39 38% 29.98 0.0
07 18:55 Calm 10.00 Fair CLR 65.7 36.9 67.1 63.5 35% 29.98 0.0
07 18:35 Calm 10.00 Fair CLR 66.2 36.7 34% 29.98 0.0
07 18:15 Calm 10.00 Fair CLR 66.6 36.1 33% 29.99 0.0
07 17:55 Calm 10.00 Fair CLR 66.4 35.2 32% 29.99 0.0
07 17:35 W 3 10.00 Fair CLR 66.9 35.2 31% 30 0.0
07 17:15 Calm 10.00 Fair CLR 66.6 34.3 30% 30 0.0
07 16:55 Calm 10.00 Fair CLR 66.6 33.3 29% 30 0.0
07 16:35 Calm 10.00 Fair CLR 66.4 34.2 30% 30 0.0
07 16:15 Calm 10.00 Fair CLR 66.4 34.3 31% 30 0.0
07 15:55 SW 5 10.00 Fair CLR 66.2 35.4 32% 30 0.0
07 15:35 W 3 10.00 Fair CLR 65.7 34.5 32% 30 0.0
07 15:15 NW 3 10.00 Fair CLR 66.2 36 33% 30.01 0.0
07 14:55 W 5 10.00 Fair CLR 65.3 36.3 34% 30.01 0.0
07 14:35 Calm 10.00 Fair CLR 65.3 36.7 35% 30.02 0.0
07 14:15 Calm 7.00 Fair CLR 64.8 37.8 37% 30.03 0.0
07 13:55 Calm 10.00 Partly Cloudy SCT065 65.1 40.5 41% 30.03 0.0
07 13:35 N 5 10.00 Partly Cloudy SCT065 64.8 39.6 40% 30.04 0.0
07 13:15 Calm 10.00 Partly Cloudy SCT065 63.7 37 37% 30.04 0.0
07 12:55 NW 7 10.00 Fair CLR 63.7 40.1 63.7 48.4 42% 30.05 0.0
07 12:35 Calm 10.00 Fair CLR 62.8 37.2 39% 30.05 0.0
07 12:15 NW 3 10.00 Fair CLR 62.1 35.2 37% 30.06 0.0
07 11:55 NE 5 10.00 Fair CLR 62.2 36.1 38% 30.07 0.0
07 11:35 NW 8 10.00 Fair CLR 62.4 39.6 43% 30.07 0.0
07 11:15 N 6 10.00 Fair CLR 61.3 38.1 42% 30.07 0.0
07 10:55 N 7 10.00 Fair CLR 60.6 38.8 45% 30.07 0.0
07 10:35 Calm 10.00 Fair CLR 59.7 35.8 41% 30.08 0.0
07 10:15 Calm 10.00 Fair CLR 59 38.3 46% 30.09 0.0
07 09:55 NE 5 10.00 Fair CLR 58.3 39.9 51% 30.08 0.0
07 09:35 Calm 10.00 Fair CLR 57.7 40.8 53% 30.08 0.0
07 09:15 NE 3 10.00 Fair CLR 56.1 39.6 54% 30.08 0.0
07 08:55 NE 5 10.00 Fair CLR 55.4 40.6 58% 30.08 0.0
07 08:35 Calm 10.00 Fair CLR 54.5 42.3 64% 30.08 0.0
07 08:15 E 5 10.00 Fair CLR 53.1 42.3 67% 30.08 0.0
07 07:55 E 5 10.00 Fair CLR 52.3 42.1 68% 30.08 0.0
07 07:35 Calm 10.00 Fair CLR 50.4 42.3 74% 30.08 0.0
07 07:15 N 3 10.00 Fair CLR 49.1 42.3 77% 30.07 0.0
07 06:55 N 5 10.00 Fair CLR 48.2 43 52 46.4 82% 47 30.07 0.0
07 06:35 Calm 10.00 Fair CLR 47.8 42.4 82% 30.06 0.0
07 06:15 Calm 10.00 Fair CLR 48 41.9 79% 30.05 0.0
07 05:55 N 3 10.00 Fair CLR 48 42.3 81% 30.05 0.0
07 05:35 Calm 10.00 Fair CLR 48.4 42.8 81% 30.05 0.0
07 05:15 N 3 10.00 Fair CLR 48 43 83% 30.05 0.0
07 04:55 Calm 10.00 Fair CLR 47.8 43 83% 30.05 0.0
07 04:35 Calm 10.00 Fair CLR 47.8 43.7 86% 30.05 0.0
07 04:15 Calm 10.00 Fair CLR 46.9 44.4 91% 30.04 0.0
07 03:55 Calm 10.00 Fair CLR 47.3 44.6 90% 30.04 0.0
07 03:35 Calm 10.00 Fair CLR 48.9 45 86% 30.04 0.0
07 03:15 Calm 10.00 Fair CLR 47.1 45.9 95% 30.03 0.0
07 02:55 Calm 10.00 Fair CLR 48 46.6 95% 30.03 0.0
07 02:35 Calm 10.00 Fair CLR 48.7 46.4 92% 30.03 0.0
07 02:15 Calm 10.00 Fair CLR 48.7 46.8 93% 30.02 0.0
07 01:55 Calm 10.00 Fair CLR 51.1 45.3 81% 30.03 0.0
07 01:35 Calm 10.00 Fair CLR 50.9 46.4 85% 30.03 0.0
07 01:15 Calm 10.00 Fair CLR 50.9 46.6 85% 30.03 0.0
07 00:55 Calm 10.00 Fair CLR 52.2 46.8 60.8 52.2 82% 30.03 0.0
07 00:35 Calm 10.00 Fair CLR 52.5 47.1 82% 30.03 0.0
07 00:15 Calm 10.00 Fair CLR 53.1 46.6 79% 30.03 0.0
06 23:55 Calm 10.00 Fair CLR 53.1 48.2 84% 30.02 0.0
06 23:35 Calm 10.00 Fair CLR 54.1 47.7 79% 30.02 0.0
06 23:15 Calm 10.00 Fair CLR 54.7 46.8 75% 30.03 0.0
06 22:55 Calm 10.00 Fair CLR 55.4 48.7 78% 30.02 0.0
06 22:15 N 3 10.00 Fair CLR 55.8 49.3 79% 30.01 0.0
06 21:55 N 3 10.00 Fair CLR 56.8 46.6 69% 30.02 0.0
06 21:35 N 3 10.00 Fair CLR 57 47.5 71% 30 0.0
06 21:15 Calm 10.00 Partly Cloudy SCT120 56.7 49.5 77% 30.02 0.0
06 20:55 Calm 7.00 Partly Cloudy SCT120 58.1 47.1 67% 30.03 0.0
06 20:35 Calm 10.00 Partly Cloudy SCT095 SCT120 58.3 46 64% 30.01 0.0
06 20:15 N 3 10.00 Mostly Cloudy SCT095 BKN120 59.4 45.7 61% 30.01 0.0
06 19:55 Calm 10.00 Partly Cloudy SCT120 59.4 47.1 64% 30.01 0.0
06 19:35 N 5 10.00 Fair CLR 59.7 49.3 69% 29.99 0.0
06 19:15 N 3 10.00 Fair CLR 60.3 46.8 61% 29.99 0.0
Date Time (cdt) Wind (mph) Vis. (mi.) Weather Sky Cond. Air Dwpt Max. Min. Relative Humidity Wind Chill (°F) Heat Index (°F) altimeter (in) sea level (mb) 1 hr 3 hr 6 hr
6 hour
Temperature (ºF) Pressure Precipitation (in)